createdAt,value
2023-11-22T03:44:01.511Z,14.50
2023-11-22T03:46:37.045Z,13.30
2023-11-22T03:49:11.717Z,12.30
2023-11-22T03:51:42.602Z,14.20
2023-11-22T03:54:30.877Z,14.50
2023-11-22T03:57:12.848Z,14.30
2023-11-22T04:00:00.547Z,13.30
2023-11-22T04:03:00.919Z,12.30
2023-11-22T04:06:08.988Z,12.90
2023-11-22T04:08:44.488Z,13.10
2023-11-22T04:11:18.609Z,12.40
2023-11-22T04:13:50.070Z,12.00
2023-11-22T04:16:20.412Z,12.10
2023-11-22T04:18:50.045Z,11.80
2023-11-22T04:23:52.047Z,10.20
2023-11-22T04:26:23.129Z,10.90
2023-11-22T04:28:52.179Z,11.40
2023-11-22T04:31:19.991Z,11.70
2023-11-22T04:33:50.977Z,11.60
2023-11-22T04:36:24.347Z,11.90
2023-11-22T04:38:55.700Z,11.40
2023-11-22T04:41:27.042Z,10.90
2023-11-22T04:43:55.587Z,13.50
2023-11-22T04:46:30.524Z,10.70
2023-11-22T04:49:08.244Z,11.00
2023-11-22T04:51:36.180Z,11.90
2023-11-22T04:54:18.729Z,11.20
2023-11-22T04:56:52.655Z,11.70
2023-11-22T04:59:24.596Z,11.60
2023-11-22T05:01:55.345Z,12.10
2023-11-22T05:04:23.655Z,11.10
2023-11-22T05:06:52.058Z,11.10
2023-11-22T05:09:30.860Z,10.20
2023-11-22T05:12:01.840Z,9.60
2023-11-22T05:14:32.865Z,9.60
2023-11-22T05:17:09.633Z,9.80
2023-11-22T05:19:45.406Z,10.90
2023-11-22T05:22:40.279Z,11.40
2023-11-22T15:56:20.503Z,7.90
2023-11-22T15:58:50.345Z,10.10
2023-11-22T16:03:49.755Z,6.40
2023-11-22T16:06:19.196Z,7.20
2023-11-22T16:08:46.079Z,8.50
2023-11-22T16:11:15.391Z,8.60
2023-11-22T16:13:49.755Z,7.60
2023-11-22T16:16:19.262Z,9.90
2023-11-22T16:18:48.988Z,8.60
2023-11-22T16:21:15.927Z,8.00
2023-11-22T16:23:43.469Z,10.20
2023-11-22T16:26:15.926Z,8.30
2023-11-22T16:28:45.127Z,8.80
2023-11-22T16:31:17.088Z,9.50
2023-11-22T16:33:51.714Z,7.30
2023-11-22T16:36:22.756Z,7.60
2023-11-22T16:38:55.377Z,9.60
2023-11-22T16:41:29.956Z,10.20
2023-11-22T16:44:05.767Z,10.60
2023-11-22T16:46:33.981Z,10.80
2023-11-22T16:49:01.014Z,10.10
2023-11-22T16:51:31.239Z,9.50
2023-11-22T16:54:03.107Z,10.60
2023-11-22T16:56:35.070Z,9.40
2023-11-22T16:59:08.589Z,8.50
2023-11-22T17:01:40.271Z,11.20
2023-11-22T17:04:12.198Z,10.30
2023-11-22T17:06:41.725Z,10.40
2023-11-22T17:11:38.738Z,10.20
2023-11-22T17:14:05.635Z,10.60
2023-11-22T17:16:38.452Z,11.50
2023-11-22T17:19:07.726Z,10.80
2023-11-22T17:21:37.279Z,10.70
2023-11-22T17:24:08.685Z,12.30
2023-11-22T17:26:37.007Z,12.00
2023-11-22T17:29:06.624Z,10.80
2023-11-22T17:31:36.125Z,11.50
2023-11-22T17:34:08.069Z,10.50
2023-11-22T17:36:40.684Z,11.20
2023-11-22T17:39:08.811Z,9.60
2023-11-22T17:41:38.441Z,11.20
2023-11-22T17:44:07.806Z,10.90
2023-11-22T17:49:13.666Z,11.70
2023-11-22T17:51:53.313Z,11.20
2023-11-22T17:54:24.719Z,12.20
2023-11-22T17:56:55.963Z,11.80
2023-11-22T17:59:25.789Z,12.50
2023-11-22T18:01:57.904Z,12.60
2023-11-22T18:04:29.575Z,12.70
2023-11-22T18:07:07.023Z,11.00
2023-11-22T18:09:46.723Z,13.10
2023-11-22T18:12:20.780Z,14.00
2023-11-22T18:14:52.256Z,10.40
2023-11-22T18:17:22.321Z,9.30
2023-11-22T18:19:51.670Z,14.00
2023-11-22T18:22:21.316Z,14.80
2023-11-22T18:24:48.341Z,13.50
2023-11-22T18:27:20.010Z,13.20
2023-11-22T18:29:51.758Z,13.90
2023-11-22T18:32:26.476Z,11.20
2023-11-22T18:34:56.585Z,11.90
2023-11-22T18:37:26.294Z,13.50
2023-11-22T18:39:57.512Z,14.20
2023-11-22T18:42:25.763Z,12.30
2023-11-22T18:44:57.956Z,14.00
2023-11-22T18:47:27.248Z,14.60
2023-11-22T18:49:56.963Z,14.80
2023-11-22T18:52:24.000Z,13.60
2023-11-22T18:54:57.679Z,13.00
2023-11-22T18:57:30.785Z,11.10
2023-11-22T19:00:07.520Z,12.90
2023-11-22T19:02:37.151Z,12.10
2023-11-22T19:05:09.208Z,11.90
2023-11-22T19:07:35.895Z,12.40
2023-11-22T19:10:11.238Z,13.60
2023-11-22T19:12:40.677Z,14.40
2023-11-22T19:15:08.222Z,15.20
2023-11-22T19:17:39.794Z,14.50
2023-11-22T19:20:11.297Z,12.30
2023-11-22T19:22:38.090Z,12.50
2023-11-22T19:25:05.276Z,13.10
2023-11-22T19:27:34.467Z,12.60
2023-11-22T19:30:07.140Z,12.50
2023-11-22T19:32:38.960Z,12.00
2023-11-22T19:35:12.139Z,11.00
2023-11-22T19:37:39.367Z,11.70
2023-11-22T19:40:11.973Z,10.40
2023-11-22T19:42:41.489Z,10.10
2023-11-22T19:45:13.105Z,10.80
2023-11-22T19:47:44.715Z,11.50
2023-11-22T19:50:19.405Z,14.00
2023-11-22T19:52:57.826Z,13.60
2023-11-22T19:55:25.219Z,14.80
2023-11-22T19:57:58.037Z,13.30
2023-11-22T20:00:26.600Z,10.40
2023-11-22T20:03:01.306Z,14.30
2023-11-22T20:05:30.911Z,13.80
2023-11-22T20:07:59.266Z,9.70
2023-11-22T20:10:26.665Z,8.30
2023-11-22T20:12:58.627Z,9.30
2023-11-22T20:15:28.304Z,10.00
2023-11-22T20:20:33.951Z,12.60
2023-11-22T20:25:28.244Z,13.30
2023-11-22T21:52:33.251Z,16.70
2023-11-22T21:55:22.741Z,16.80
2023-11-22T21:58:14.682Z,14.90
2023-11-22T22:00:53.158Z,14.40
2023-11-22T22:03:32.864Z,14.90
2023-11-22T22:06:28.665Z,14.50
2023-11-22T22:09:23.494Z,16.50
2023-11-22T22:12:16.260Z,16.70
2023-11-22T22:14:47.896Z,20.70
2023-11-22T22:17:56.592Z,22.10
2023-11-22T22:20:51.581Z,16.50
2023-11-22T22:24:24.495Z,14.80
2023-11-22T22:27:37.413Z,18.00
2023-11-22T22:30:27.023Z,20.10
2023-11-22T22:33:22.591Z,19.00
2023-11-22T22:36:13.600Z,19.40
2023-11-22T22:39:48.822Z,19.40
2023-11-22T22:42:40.140Z,20.80
2023-11-22T22:46:15.235Z,18.40
2023-11-22T22:49:10.046Z,22.30
2023-11-22T22:52:03.412Z,21.80
2023-11-22T22:54:36.881Z,21.50
2023-11-22T22:57:11.006Z,20.00
2023-11-22T22:59:45.849Z,22.40
2023-11-22T23:02:20.575Z,21.90
2023-11-22T23:04:54.309Z,19.20
2023-11-22T23:07:26.184Z,17.30
2023-11-22T23:09:53.104Z,21.90
2023-11-22T23:12:22.502Z,20.30
2023-11-22T23:14:51.827Z,20.20
2023-11-22T23:17:21.041Z,23.20
2023-11-22T23:19:51.592Z,22.20
2023-11-22T23:22:23.722Z,23.40
2023-11-22T23:24:52.779Z,18.80
2023-11-22T23:27:22.026Z,22.10
2023-11-22T23:30:00.188Z,17.50
2023-11-22T23:32:32.161Z,15.50
2023-11-22T23:35:01.341Z,19.80
2023-11-22T23:37:33.165Z,22.20
2023-11-22T23:40:10.821Z,19.30
2023-11-22T23:42:46.864Z,19.00
2023-11-22T23:45:20.535Z,19.60
2023-11-22T23:47:53.461Z,16.50
2023-11-22T23:50:38.362Z,15.80
2023-11-22T23:53:23.176Z,17.50
2023-11-22T23:55:55.849Z,18.30
2023-11-22T23:58:26.036Z,17.70
